Time;durP1;ratioP1;P1;durP2;ratioP2;P2;SDS_P1;SDS_P2;PMS_P1;PMS_P2;Temp;Humidity;BMP_temperature;BMP_pressure;BME280_temperature;BME280_humidity;BME280_pressure;Samples;Min_cycle;Max_cycle;Signal;HPM_P1;HPM_P2
2023/04/08 00:01:00;;;;;;;16.07;9.53;;;6.10;99.90;;;;;;4972995;28;20236;-72
2023/04/08 00:03:27;;;;;;;12.30;8.73;;;6.20;99.90;;;;;;4989482;28;20671;-75
2023/04/08 00:05:54;;;;;;;12.37;8.67;;;6.20;99.90;;;;;;4975955;28;20224;-81
2023/04/08 00:08:21;;;;;;;12.93;8.97;;;6.20;99.90;;;;;;4974234;28;20192;-74
2023/04/08 00:10:51;;;;;;;15.97;10.33;;;6.10;99.90;;;;;;4992299;28;20638;-78
2023/04/08 00:13:19;;;;;;;14.43;9.00;;;6.10;99.90;;;;;;4976516;28;20216;-79
2023/04/08 00:15:46;;;;;;;13.63;8.90;;;6.20;99.90;;;;;;4993560;28;20200;-75
2023/04/08 00:18:15;;;;;;;13.23;8.60;;;6.00;99.90;;;;;;5008681;28;20309;-79
2023/04/08 00:20:42;;;;;;;16.80;9.70;;;6.20;99.90;;;;;;4993685;28;20220;-76
2023/04/08 00:23:09;;;;;;;14.97;9.00;;;6.20;99.90;;;;;;4991761;28;20251;-72
2023/04/08 00:25:36;;;;;;;14.67;9.33;;;6.30;99.90;;;;;;4992154;28;20200;-76
2023/04/08 00:28:03;;;;;;;14.23;9.13;;;6.30;99.90;;;;;;4991602;28;20604;-73
2023/04/08 00:30:30;;;;;;;15.20;8.93;;;6.30;99.90;;;;;;4993252;28;20666;-75
2023/04/08 00:32:57;;;;;;;16.67;9.23;;;6.30;99.90;;;;;;4975570;28;20204;-75
2023/04/08 00:35:24;;;;;;;12.93;8.63;;;6.20;99.90;;;;;;4992017;28;20269;-76
2023/04/08 00:37:51;;;;;;;12.73;8.20;;;6.20;99.90;;;;;;4993226;28;20277;-74
2023/04/08 00:40:18;;;;;;;12.83;8.30;;;6.20;99.90;;;;;;4992277;28;20566;-74
2023/04/08 00:42:48;;;;;;;13.17;8.50;;;6.30;99.90;;;;;;4993879;28;20554;-76
2023/04/08 00:45:22;;;;;;;13.47;8.43;;;6.30;99.90;;;;;;4992351;28;20282;-76
2023/04/08 00:47:51;;;;;;;13.20;8.70;;;6.30;99.90;;;;;;4991635;28;20208;-74
2023/04/08 00:50:19;;;;;;;12.10;8.07;;;6.40;99.90;;;;;;4992136;28;20262;-75
2023/04/08 00:52:46;;;;;;;12.83;8.50;;;6.30;99.90;;;;;;4993199;28;20283;-75
2023/04/08 00:55:13;;;;;;;13.87;8.87;;;6.30;99.90;;;;;;4991746;28;20697;-73
2023/04/08 00:57:41;;;;;;;13.90;9.03;;;6.10;99.90;;;;;;4991085;28;20213;-75
2023/04/08 01:00:08;;;;;;;14.00;9.10;;;6.00;99.90;;;;;;5007610;28;20232;-74
2023/04/08 01:02:49;;;;;;;13.57;8.53;;;6.00;99.90;;;;;;4992866;28;20221;-83
2023/04/08 01:05:45;;;;;;;14.30;8.73;;;6.00;99.90;;;;;;4977695;28;20218;-84
2023/04/08 01:08:13;;;;;;;11.63;8.17;;;6.10;99.90;;;;;;4992220;28;20265;-79
2023/04/08 01:10:44;;;;;;;13.33;8.30;;;6.10;99.90;;;;;;5011184;28;20206;-83
2023/04/08 01:13:16;;;;;;;13.80;8.50;;;6.20;99.90;;;;;;4993922;28;20271;-82
2023/04/08 01:15:47;;;;;;;13.80;8.20;;;6.30;99.90;;;;;;4994491;28;20282;-85
2023/04/08 01:18:16;;;;;;;13.93;9.00;;;6.20;99.90;;;;;;4993418;28;20204;-83
2023/04/08 01:20:44;;;;;;;13.90;8.70;;;6.20;99.90;;;;;;4992662;28;20230;-85
2023/04/08 01:23:28;;;;;;;14.03;9.07;;;6.10;99.90;;;;;;4992623;28;20250;-85
2023/04/08 01:25:57;;;;;;;14.03;9.03;;;6.00;99.90;;;;;;4992960;28;20200;-89
2023/04/08 01:28:28;;;;;;;14.97;9.60;;;5.90;99.90;;;;;;4993896;28;20228;-82
2023/04/08 01:30:57;;;;;;;15.40;9.97;;;5.90;99.90;;;;;;4992732;28;20210;-87
2023/04/08 01:33:26;;;;;;;15.67;10.13;;;5.70;99.90;;;;;;4994616;28;20191;-84
2023/04/08 01:35:55;;;;;;;14.47;9.97;;;5.70;99.90;;;;;;4992261;28;20299;-86
2023/04/08 01:38:25;;;;;;;15.57;9.73;;;5.60;99.90;;;;;;4991991;28;20242;-86
2023/04/08 01:40:54;;;;;;;15.67;9.90;;;5.60;99.90;;;;;;4994329;28;20224;-83
2023/04/08 01:43:23;;;;;;;15.97;9.80;;;5.50;99.90;;;;;;5007906;28;20199;-85
2023/04/08 01:45:56;;;;;;;14.57;9.17;;;5.50;99.90;;;;;;4991421;28;20189;-84
2023/04/08 01:48:25;;;;;;;14.57;9.63;;;5.50;99.90;;;;;;4993020;28;20200;-83
2023/04/08 01:50:53;;;;;;;14.27;9.17;;;5.50;99.90;;;;;;4992598;28;20275;-85
2023/04/08 01:53:20;;;;;;;15.47;9.40;;;5.40;99.90;;;;;;4992162;28;20207;-81
2023/04/08 01:55:56;;;;;;;15.93;9.60;;;5.40;99.90;;;;;;4993740;28;20215;-85
2023/04/08 01:58:26;;;;;;;16.87;10.27;;;5.30;99.90;;;;;;4996032;28;20231;-85
2023/04/08 02:00:55;;;;;;;17.33;10.03;;;5.20;99.90;;;;;;4995923;28;20225;-82
2023/04/08 02:03:29;;;;;;;16.23;9.93;;;5.20;99.90;;;;;;4995225;28;20313;-81
2023/04/08 02:06:18;;;;;;;14.73;9.60;;;5.10;99.90;;;;;;4938617;28;20211;-79
2023/04/08 02:08:48;;;;;;;15.87;9.50;;;5.10;99.90;;;;;;4979642;28;20210;-87
2023/04/08 02:11:28;;;;;;;14.50;9.17;;;5.00;99.90;;;;;;4996750;28;20187;-86
2023/04/08 02:14:02;;;;;;;15.37;9.77;;;5.00;99.90;;;;;;4995087;28;20594;-84
2023/04/08 02:16:37;;;;;;;16.17;9.83;;;4.90;99.90;;;;;;4994765;28;20218;-84
2023/04/08 02:19:27;;;;;;;16.73;10.07;;;4.90;99.90;;;;;;5011995;28;20614;-83
2023/04/08 02:22:05;;;;;;;15.63;10.30;;;4.90;99.90;;;;;;5003754;28;20231;-84
2023/04/08 02:24:34;;;;;;;15.43;9.50;;;4.90;99.90;;;;;;5024400;28;20208;-82
2023/04/08 02:27:03;;;;;;;18.00;10.40;;;4.80;99.90;;;;;;5045038;23;20239;-83
2023/04/08 02:29:31;;;;;;;19.73;10.03;;;4.70;99.90;;;;;;5054937;28;20205;-81
2023/04/08 02:32:00;;;;;;;19.00;9.03;;;4.70;99.90;;;;;;5037279;28;20259;-87
2023/04/08 02:34:29;;;;;;;16.73;10.47;;;4.70;99.90;;;;;;5037383;28;20206;-81
2023/04/08 02:36:57;;;;;;;16.30;9.87;;;4.60;99.90;;;;;;5054478;28;20255;-82
2023/04/08 02:39:34;;;;;;;18.10;10.17;;;4.50;99.90;;;;;;5036816;28;20193;-85
2023/04/08 02:42:02;;;;;;;17.37;9.67;;;4.50;99.90;;;;;;5037667;28;20228;-85
2023/04/08 02:44:29;;;;;;;15.47;9.50;;;4.40;99.90;;;;;;5036987;28;20199;-85
2023/04/08 02:46:56;;;;;;;16.53;9.40;;;4.40;99.90;;;;;;5036425;28;20629;-85
2023/04/08 02:49:23;;;;;;;16.43;9.83;;;4.30;99.90;;;;;;5036409;28;20195;-83
2023/04/08 02:51:50;;;;;;;18.03;9.93;;;4.30;99.90;;;;;;5036786;28;20207;-81
2023/04/08 02:54:17;;;;;;;17.60;10.30;;;4.30;99.90;;;;;;5054489;28;20579;-81
2023/04/08 02:56:43;;;;;;;18.07;10.20;;;4.30;99.90;;;;;;5064277;28;20212;-88
2023/04/08 02:59:10;;;;;;;16.10;10.33;;;4.40;99.90;;;;;;5039267;28;20189;-81
2023/04/08 03:01:42;;;;;;;16.07;9.93;;;4.30;99.90;;;;;;5036431;28;20706;-88
2023/04/08 03:04:10;;;;;;;18.23;10.67;;;4.30;99.90;;;;;;5037035;28;20590;-87
2023/04/08 03:06:36;;;;;;;17.37;9.97;;;4.20;99.90;;;;;;5050727;28;20204;-86
2023/04/08 03:09:04;;;;;;;18.10;9.93;;;4.30;99.90;;;;;;5036100;28;20190;-90
2023/04/08 03:11:31;;;;;;;19.73;10.43;;;4.30;99.90;;;;;;5055066;28;20205;-87
2023/04/08 03:13:59;;;;;;;18.07;10.33;;;4.20;99.90;;;;;;5037798;28;20302;-86
2023/04/08 03:16:26;;;;;;;16.37;10.00;;;4.20;99.90;;;;;;5036642;28;20231;-88
2023/04/08 03:18:53;;;;;;;16.33;10.27;;;4.10;99.90;;;;;;5054923;28;20208;-84
2023/04/08 03:21:20;;;;;;;15.90;9.97;;;4.00;99.90;;;;;;5038126;28;20708;-79
2023/04/08 03:23:47;;;;;;;18.23;10.33;;;4.10;99.90;;;;;;5038275;28;20314;-79
2023/04/08 03:26:14;;;;;;;18.10;10.00;;;4.00;99.90;;;;;;5032223;28;20740;-79
2023/04/08 03:28:41;;;;;;;17.73;11.00;;;4.00;99.90;;;;;;5033811;28;20598;-77
2023/04/08 03:31:09;;;;;;;18.33;10.47;;;3.90;99.90;;;;;;5032308;28;20216;-77
2023/04/08 03:33:36;;;;;;;16.53;10.53;;;3.80;99.90;;;;;;5031983;28;20204;-80
2023/04/08 03:36:04;;;;;;;17.97;10.53;;;3.80;99.90;;;;;;5032337;28;20208;-77
2023/04/08 03:38:31;;;;;;;20.80;10.67;;;3.70;99.90;;;;;;5032381;28;20187;-77
2023/04/08 03:40:58;;;;;;;19.50;10.30;;;3.60;99.90;;;;;;5032268;28;20646;-77
2023/04/08 03:43:24;;;;;;;17.97;9.40;;;3.60;99.90;;;;;;5033226;28;20307;-76
2023/04/08 03:45:51;;;;;;;16.80;9.87;;;3.50;99.90;;;;;;5031927;28;20215;-76
2023/04/08 03:48:18;;;;;;;17.73;10.30;;;3.50;99.90;;;;;;5031672;28;20205;-76
2023/04/08 03:50:45;;;;;;;18.77;9.90;;;3.40;99.90;;;;;;5033272;28;20214;-76
2023/04/08 03:53:12;;;;;;;18.57;10.43;;;3.40;99.90;;;;;;5031957;28;20199;-76
2023/04/08 03:55:39;;;;;;;15.83;9.73;;;3.30;99.90;;;;;;5031533;28;20562;-76
2023/04/08 03:58:06;;;;;;;16.93;10.20;;;3.30;99.90;;;;;;5033049;28;20560;-76
2023/04/08 04:00:34;;;;;;;17.07;10.20;;;3.20;99.90;;;;;;5032934;28;20215;-78
2023/04/08 04:03:01;;;;;;;18.23;10.33;;;3.20;99.90;;;;;;5031548;28;20233;-77
2023/04/08 04:05:29;;;;;;;17.80;10.37;;;3.20;99.90;;;;;;5031308;28;20684;-77
2023/04/08 04:07:57;;;;;;;19.07;11.30;;;3.10;99.90;;;;;;5033002;28;20190;-78
2023/04/08 04:10:24;;;;;;;21.93;11.60;;;3.10;99.90;;;;;;5031733;28;20192;-78
2023/04/08 04:12:51;;;;;;;20.03;11.73;;;3.00;99.90;;;;;;5032900;28;20275;-77
2023/04/08 04:15:18;;;;;;;24.03;13.00;;;3.00;99.90;;;;;;5033090;28;20201;-79
2023/04/08 04:18:02;;;;;;;23.57;13.33;;;3.00;99.90;;;;;;5032499;28;20192;-79
2023/04/08 04:20:29;;;;;;;26.53;14.07;;;3.00;99.90;;;;;;5032753;28;20331;-78
2023/04/08 04:22:56;;;;;;;24.90;14.03;;;3.00;99.90;;;;;;5032322;28;20695;-77
2023/04/08 04:25:23;;;;;;;28.07;15.40;;;3.00;99.90;;;;;;5031784;28;20635;-77
2023/04/08 04:27:50;;;;;;;27.73;16.40;;;3.00;99.90;;;;;;5034202;28;20201;-78
2023/04/08 04:30:18;;;;;;;29.80;16.57;;;3.00;99.90;;;;;;5052258;28;20200;-78
2023/04/08 04:32:45;;;;;;;31.97;17.63;;;3.00;99.90;;;;;;5034581;28;20199;-77
2023/04/08 04:35:12;;;;;;;31.77;17.03;;;3.00;99.90;;;;;;5018035;28;20378;-79
2023/04/08 04:37:39;;;;;;;30.83;16.40;;;3.00;99.90;;;;;;5052174;28;20670;-80
2023/04/08 04:40:06;;;;;;;27.47;15.57;;;3.00;99.90;;;;;;5052038;28;20218;-80
2023/04/08 04:42:33;;;;;;;26.00;14.63;;;3.00;99.90;;;;;;5052157;28;20216;-78
2023/04/08 04:45:00;;;;;;;24.87;14.13;;;3.00;99.90;;;;;;5034344;28;20567;-79
2023/04/08 04:47:28;;;;;;;26.17;13.60;;;3.00;99.90;;;;;;5034099;28;20193;-78
2023/04/08 04:50:00;;;;;;;25.20;13.27;;;3.00;99.90;;;;;;5034238;28;20643;-76
2023/04/08 04:52:30;;;;;;;23.33;12.77;;;3.00;99.90;;;;;;5034023;28;20261;-77
2023/04/08 04:54:57;;;;;;;23.30;13.40;;;3.10;99.90;;;;;;5053042;28;20194;-76
2023/04/08 04:57:25;;;;;;;23.03;12.47;;;3.10;99.90;;;;;;5033891;28;20191;-77
2023/04/08 04:59:52;;;;;;;20.80;11.73;;;3.20;99.90;;;;;;5034338;28;20199;-77
2023/04/08 05:02:19;;;;;;;20.40;11.60;;;3.20;99.90;;;;;;5033836;28;20560;-77
2023/04/08 05:04:47;;;;;;;21.87;12.17;;;3.30;99.90;;;;;;5051984;28;20218;-77
2023/04/08 05:07:14;;;;;;;22.53;12.30;;;3.40;99.90;;;;;;5033954;28;20290;-75
2023/04/08 05:09:41;;;;;;;21.47;12.30;;;3.40;99.90;;;;;;5033443;28;20559;-76
2023/04/08 05:12:08;;;;;;;21.73;12.17;;;3.50;99.90;;;;;;5051918;28;20205;-75
2023/04/08 05:14:35;;;;;;;22.27;12.03;;;3.50;99.90;;;;;;5033884;28;20768;-76
2023/04/08 05:17:02;;;;;;;20.93;12.10;;;3.60;99.90;;;;;;5033719;28;20206;-76
2023/04/08 05:19:29;;;;;;;20.00;11.00;;;3.70;99.90;;;;;;5033519;28;20258;-76
2023/04/08 05:21:55;;;;;;;19.50;11.20;;;3.80;99.90;;;;;;5051595;28;20277;-77
2023/04/08 05:24:22;;;;;;;20.77;11.37;;;3.80;99.90;;;;;;5033270;28;20187;-76
2023/04/08 05:26:51;;;;;;;20.77;11.80;;;3.90;99.90;;;;;;5051513;28;20710;-76
2023/04/08 05:29:20;;;;;;;20.67;11.63;;;4.00;99.90;;;;;;5033707;28;20228;-77
2023/04/08 05:31:47;;;;;;;20.83;11.27;;;4.00;99.90;;;;;;5033179;28;20207;-77
2023/04/08 05:34:18;;;;;;;18.50;10.67;;;4.10;99.90;;;;;;5033459;28;20338;-76
2023/04/08 05:36:45;;;;;;;20.70;11.13;;;4.10;99.90;;;;;;5051463;28;20554;-76
2023/04/08 05:39:11;;;;;;;20.87;11.47;;;4.20;99.90;;;;;;5051872;28;20668;-76
2023/04/08 05:41:38;;;;;;;20.27;10.67;;;4.20;99.90;;;;;;5033272;28;20228;-77
2023/04/08 05:44:05;;;;;;;19.07;11.13;;;4.20;99.90;;;;;;5051709;28;20204;-83
2023/04/08 05:46:34;;;;;;;20.77;11.10;;;4.30;99.90;;;;;;5033439;28;20188;-76
2023/04/08 05:49:01;;;;;;;21.17;11.37;;;4.40;99.90;;;;;;5051246;28;20202;-79
2023/04/08 05:51:28;;;;;;;20.13;11.13;;;4.40;99.90;;;;;;5033598;28;20194;-79
2023/04/08 05:53:54;;;;;;;19.60;10.63;;;4.50;99.90;;;;;;5033166;28;20205;-80
2023/04/08 05:56:21;;;;;;;18.23;11.03;;;4.50;99.90;;;;;;5052405;28;20295;-77
2023/04/08 05:58:49;;;;;;;19.07;10.67;;;4.60;99.90;;;;;;5040193;28;20197;-76
2023/04/08 06:01:16;;;;;;;18.50;10.60;;;4.70;99.90;;;;;;5054256;28;20197;-76
2023/04/08 06:03:44;;;;;;;17.97;10.93;;;4.80;99.90;;;;;;5035581;28;20232;-76
2023/04/08 06:06:11;;;;;;;28.83;12.83;;;4.90;99.90;;;;;;5033265;28;20197;-80
2023/04/08 06:08:39;;;;;;;23.13;11.03;;;4.90;99.90;;;;;;5050883;28;20246;-79
2023/04/08 06:11:06;;;;;;;17.57;10.73;;;4.90;99.90;;;;;;5050949;28;20652;-81
2023/04/08 06:13:33;;;;;;;18.53;11.03;;;5.00;99.90;;;;;;5033512;28;20201;-78
2023/04/08 06:16:11;;;;;;;19.27;11.30;;;5.10;99.90;;;;;;5033103;28;20205;-79
2023/04/08 06:18:38;;;;;;;19.40;11.30;;;5.30;99.90;;;;;;5033527;28;20230;-79
2023/04/08 06:21:05;;;;;;;18.70;11.30;;;5.40;99.90;;;;;;5032747;28;20185;-78
2023/04/08 06:23:32;;;;;;;19.87;11.37;;;5.40;99.90;;;;;;5033130;28;20681;-78
2023/04/08 06:25:59;;;;;;;17.77;10.43;;;5.50;99.90;;;;;;5032954;28;20233;-79
2023/04/08 06:28:30;;;;;;;18.17;10.83;;;5.60;99.90;;;;;;5032829;28;20202;-76
2023/04/08 06:30:57;;;;;;;18.33;10.33;;;5.70;99.90;;;;;;5000814;28;20199;-78
2023/04/08 06:33:24;;;;;;;16.80;10.20;;;5.80;99.90;;;;;;5032722;28;20207;-78
2023/04/08 06:35:51;;;;;;;18.10;10.33;;;5.90;99.90;;;;;;5050644;28;20590;-78
2023/04/08 06:38:18;;;;;;;16.53;10.03;;;5.90;99.90;;;;;;5032875;28;20200;-78
2023/04/08 06:40:44;;;;;;;15.73;9.57;;;6.00;99.90;;;;;;5050843;28;20221;-79
2023/04/08 06:43:11;;;;;;;15.87;9.50;;;6.10;99.90;;;;;;5033761;28;20223;-82
2023/04/08 06:45:38;;;;;;;19.20;9.80;;;6.30;99.90;;;;;;5036322;28;20304;-77
2023/04/08 06:48:07;;;;;;;14.23;9.07;;;6.30;99.90;;;;;;5054272;28;20749;-77
2023/04/08 06:50:36;;;;;;;13.23;8.97;;;6.50;99.90;;;;;;5036186;28;20197;-78
2023/04/08 06:53:03;;;;;;;16.37;8.33;;;6.60;99.90;;;;;;5036342;28;20202;-78
2023/04/08 06:55:30;;;;;;;15.53;8.93;;;6.70;99.90;;;;;;5036045;28;20300;-77
2023/04/08 06:57:56;;;;;;;17.70;8.90;;;6.80;99.90;;;;;;5054241;28;20311;-77
2023/04/08 07:00:23;;;;;;;12.80;8.30;;;6.80;99.90;;;;;;5054070;28;20186;-79
2023/04/08 07:02:50;;;;;;;12.43;7.93;;;6.90;99.90;;;;;;5053926;28;20210;-80
2023/04/08 07:05:17;;;;;;;13.00;7.77;;;7.00;99.90;;;;;;5036002;28;20244;-79
2023/04/08 07:07:45;;;;;;;12.47;8.13;;;7.10;99.90;;;;;;5053956;28;20202;-78
2023/04/08 07:10:12;;;;;;;13.50;8.00;;;7.20;99.90;;;;;;5054480;28;20201;-76
2023/04/08 07:12:39;;;;;;;12.57;7.47;;;7.30;99.90;;;;;;5035825;28;20198;-79
2023/04/08 07:15:06;;;;;;;10.97;6.80;;;7.50;99.90;;;;;;5053875;28;20243;-83
2023/04/08 07:17:34;;;;;;;9.73;6.50;;;7.60;99.90;;;;;;5034763;28;20201;-83
2023/04/08 07:20:01;;;;;;;12.00;7.10;;;7.70;99.90;;;;;;5036208;28;20198;-82
2023/04/08 07:22:27;;;;;;;10.13;6.63;;;7.80;99.90;;;;;;5035603;28;20221;-79
2023/04/08 07:24:54;;;;;;;9.43;6.73;;;7.90;99.90;;;;;;5036319;28;20210;-84
2023/04/08 07:27:21;;;;;;;9.70;6.57;;;8.00;99.90;;;;;;5018626;28;20718;-80
2023/04/08 07:29:53;;;;;;;11.70;6.73;;;8.00;99.90;;;;;;5035955;28;20245;-81
2023/04/08 07:32:20;;;;;;;10.03;6.70;;;8.20;99.90;;;;;;5019199;28;20221;-80
2023/04/08 07:34:47;;;;;;;11.10;7.17;;;8.30;99.90;;;;;;5035697;28;20229;-81
2023/04/08 07:37:14;;;;;;;11.70;7.00;;;8.30;99.90;;;;;;5035851;28;20201;-80
2023/04/08 07:39:41;;;;;;;10.03;6.60;;;8.30;99.90;;;;;;5035516;28;20657;-82
2023/04/08 07:42:09;;;;;;;10.40;7.00;;;8.40;99.90;;;;;;5035917;28;20209;-80
2023/04/08 07:44:37;;;;;;;10.30;6.73;;;8.50;99.90;;;;;;5053415;28;20247;-79
2023/04/08 07:47:04;;;;;;;9.93;6.47;;;8.70;99.90;;;;;;5053164;28;20261;-79
2023/04/08 07:49:31;;;;;;;10.73;7.17;;;8.70;99.90;;;;;;5035293;28;20646;-80
2023/04/08 07:51:58;;;;;;;12.33;7.17;;;8.70;99.90;;;;;;5035296;28;20641;-80
2023/04/08 07:54:25;;;;;;;11.13;6.80;;;8.70;99.90;;;;;;5052596;28;20206;-79
2023/04/08 07:56:52;;;;;;;13.33;7.37;;;8.80;99.90;;;;;;5035095;28;20202;-80
2023/04/08 07:59:19;;;;;;;10.23;7.13;;;8.80;99.90;;;;;;5035265;28;20191;-80
2023/04/08 08:01:46;;;;;;;11.70;7.63;;;8.90;99.90;;;;;;5019153;28;20230;-80
2023/04/08 08:04:13;;;;;;;10.50;7.33;;;9.10;99.90;;;;;;5034541;28;20219;-82
2023/04/08 08:06:41;;;;;;;11.50;7.10;;;9.20;99.90;;;;;;5037530;28;20237;-81
2023/04/08 08:09:09;;;;;;;10.80;6.97;;;9.30;99.90;;;;;;5035002;28;20268;-78
2023/04/08 08:11:36;;;;;;;10.77;7.30;;;9.30;99.90;;;;;;5025025;23;20593;-79
2023/04/08 08:14:03;;;;;;;10.70;7.20;;;9.60;99.90;;;;;;5032709;28;20543;-83
2023/04/08 08:16:32;;;;;;;11.50;7.40;;;9.80;99.90;;;;;;5015188;28;20198;-81
2023/04/08 08:18:59;;;;;;;11.97;7.27;;;10.00;99.90;;;;;;5014663;28;20192;-82
2023/04/08 08:21:26;;;;;;;10.93;6.97;;;10.10;99.90;;;;;;5033181;28;20218;-83
2023/04/08 08:23:53;;;;;;;11.23;7.07;;;10.40;99.90;;;;;;5018754;28;20341;-92
2023/04/08 08:26:20;;;;;;;11.83;7.53;;;10.50;99.90;;;;;;5020665;28;20192;-87
2023/04/08 08:28:47;;;;;;;9.00;6.27;;;10.70;99.90;;;;;;5021150;28;20203;-74
2023/04/08 08:31:14;;;;;;;10.67;6.73;;;11.20;99.90;;;;;;5017914;28;20249;-82
2023/04/08 08:33:41;;;;;;;10.57;7.30;;;11.60;99.90;;;;;;5039156;28;20683;-78
2023/04/08 08:36:08;;;;;;;8.97;6.63;;;12.30;99.90;;;;;;5014581;28;20195;-77
2023/04/08 08:38:35;;;;;;;9.70;6.63;;;13.20;99.90;;;;;;5015614;28;20196;-76
2023/04/08 08:41:03;;;;;;;10.20;6.93;;;14.10;99.90;;;;;;5015845;28;20208;-74
2023/04/08 08:43:33;;;;;;;9.33;6.20;;;14.70;99.90;;;;;;5017645;28;20692;-86
2023/04/08 08:46:02;;;;;;;8.63;6.27;;;15.10;99.90;;;;;;5017139;28;20202;-81
2023/04/08 08:48:31;;;;;;;10.03;6.83;;;15.70;99.90;;;;;;5014691;28;20198;-80
2023/04/08 08:50:58;;;;;;;9.50;6.43;;;15.80;99.90;;;;;;5014644;28;20555;-83
2023/04/08 08:53:30;;;;;;;10.27;6.87;;;16.10;99.90;;;;;;5014783;28;20187;-85
2023/04/08 08:56:00;;;;;;;9.60;6.73;;;16.50;99.90;;;;;;5014319;28;20207;-79
2023/04/08 08:58:43;;;;;;;10.03;6.77;;;16.20;99.90;;;;;;5014091;28;20195;-73
2023/04/08 09:01:32;;;;;;;8.33;6.40;;;16.20;99.90;;;;;;5014242;28;20650;-76
2023/04/08 09:04:21;;;;;;;8.80;6.30;;;16.10;99.90;;;;;;4983694;28;20223;-89
2023/04/08 09:07:09;;;;;;;9.97;6.17;;;16.60;99.90;;;;;;5032355;28;20202;-88
2023/04/08 09:09:48;;;;;;;17.67;7.77;;;16.70;99.90;;;;;;5014634;28;20644;-84
2023/04/08 09:17:07;;;;;;;9.23;6.37;;;16.70;99.90;;;;;;5031611;28;20594;-86
2023/04/08 09:19:34;;;;;;;9.87;6.80;;;17.10;99.90;;;;;;4993119;28;20616;-83
2023/04/08 09:22:09;;;;;;;9.93;6.30;;;17.10;98.40;;;;;;4979907;28;20259;-85
2023/04/08 09:24:37;;;;;;;8.63;6.23;;;17.50;98.80;;;;;;5013160;28;20212;-82
2023/04/08 09:27:04;;;;;;;8.63;6.57;;;17.80;95.80;;;;;;4994154;28;20204;-73
2023/04/08 09:29:33;;;;;;;8.10;6.00;;;18.00;95.60;;;;;;4994048;28;20192;-72
2023/04/08 09:32:03;;;;;;;9.83;6.10;;;18.00;95.00;;;;;;4994492;28;20196;-74
2023/04/08 09:34:32;;;;;;;7.90;6.00;;;18.40;94.70;;;;;;4993644;28;20203;-73
2023/04/08 09:37:01;;;;;;;8.50;6.20;;;18.70;94.00;;;;;;5011759;28;20342;-73
2023/04/08 09:39:28;;;;;;;11.43;6.73;;;18.70;91.10;;;;;;4993862;28;20650;-78
2023/04/08 09:42:00;;;;;;;11.90;6.70;;;18.70;90.60;;;;;;4993979;28;20199;-80
2023/04/08 09:44:30;;;;;;;9.23;6.20;;;18.90;90.70;;;;;;5011481;28;20708;-76
2023/04/08 09:47:06;;;;;;;14.63;6.93;;;19.10;88.10;;;;;;4993558;28;20668;-74
2023/04/08 09:49:39;;;;;;;9.27;6.70;;;19.00;87.50;;;;;;4994136;28;20196;-71
2023/04/08 09:52:08;;;;;;;8.93;6.13;;;19.20;87.30;;;;;;4994070;28;20207;-73
2023/04/08 09:54:50;;;;;;;7.40;6.17;;;19.50;85.30;;;;;;5031205;28;20552;-73
2023/04/08 09:57:50;;;;;;;13.90;7.40;;;19.80;84.70;;;;;;5013538;28;20214;-74
2023/04/08 10:00:17;;;;;;;10.67;6.53;;;20.20;80.30;;;;;;5013650;28;20207;-74
2023/04/08 10:03:02;;;;;;;10.53;6.53;;;20.50;79.20;;;;;;5013531;28;20200;-73
2023/04/08 10:05:30;;;;;;;9.10;6.67;;;20.40;76.30;;;;;;5013495;28;20238;-77
2023/04/08 10:07:58;;;;;;;10.60;6.90;;;19.90;78.50;;;;;;5013143;28;20254;-75
2023/04/08 10:10:26;;;;;;;7.27;6.03;;;19.90;79.20;;;;;;5013239;28;20196;-72
2023/04/08 10:12:53;;;;;;;9.33;6.87;;;20.00;77.30;;;;;;5013305;28;20602;-73
2023/04/08 10:15:31;;;;;;;8.60;6.43;;;20.60;74.60;;;;;;5013207;28;20700;-73
2023/04/08 10:18:05;;;;;;;8.37;6.50;;;20.50;73.30;;;;;;5033688;28;20292;-73
2023/04/08 10:20:34;;;;;;;7.63;5.77;;;20.90;71.40;;;;;;5016852;28;20211;-73
2023/04/08 10:23:12;;;;;;;16.40;6.23;;;20.60;66.60;;;;;;5035034;28;20235;-72
2023/04/08 10:25:40;;;;;;;9.13;6.30;;;20.80;68.20;;;;;;5017250;28;20663;-73
2023/04/08 10:28:10;;;;;;;7.57;6.20;;;21.20;69.10;;;;;;5034685;28;20187;-79
2023/04/08 10:30:44;;;;;;;9.23;6.17;;;21.60;66.40;;;;;;5035088;28;20301;-86
2023/04/08 10:33:14;;;;;;;8.90;5.88;;;21.70;63.50;;;;;;5016800;28;20209;-84
2023/04/08 10:35:45;;;;;;;8.00;6.30;;;22.20;63.00;;;;;;5018151;28;20210;-80
2023/04/08 10:38:13;;;;;;;6.93;5.63;;;22.20;60.00;;;;;;5021835;28;20249;-87
2023/04/08 10:40:41;;;;;;;9.48;5.95;;;22.50;59.00;;;;;;5021383;28;20291;-83
2023/04/08 10:43:12;;;;;;;7.50;5.90;;;22.60;59.20;;;;;;5018121;28;20191;-73
2023/04/08 10:45:40;;;;;;;8.15;6.32;;;22.70;59.20;;;;;;5018011;28;20206;-85
2023/04/08 10:48:18;;;;;;;7.93;6.13;;;23.00;59.50;;;;;;5034345;28;20215;-75
2023/04/08 10:50:59;;;;;;;7.05;5.75;;;23.00;57.20;;;;;;5034228;28;20192;-70
2023/04/08 10:53:28;;;;;;;7.78;6.28;;;23.00;58.00;;;;;;5034312;28;20533;-72
2023/04/08 10:56:13;;;;;;;8.90;6.03;;;23.10;58.50;;;;;;5010805;28;20188;-71
2023/04/08 10:58:49;;;;;;;8.07;6.18;;;23.40;57.40;;;;;;5013951;28;20192;-71
2023/04/08 11:01:16;;;;;;;11.38;5.93;;;23.20;56.90;;;;;;5013835;28;20215;-71
2023/04/08 11:03:43;;;;;;;7.03;5.82;;;23.70;56.30;;;;;;4996559;28;20224;-71
2023/04/08 11:06:11;;;;;;;8.85;5.78;;;23.80;54.90;;;;;;4996154;28;20242;-72
2023/04/08 11:08:41;;;;;;;10.10;6.00;;;24.10;55.10;;;;;;4996274;28;20200;-73
2023/04/08 11:11:09;;;;;;;10.20;5.90;;;23.70;55.00;;;;;;4980536;28;20746;-76
2023/04/08 11:13:40;;;;;;;7.45;6.05;;;23.90;54.80;;;;;;4996056;28;20196;-73
2023/04/08 11:16:21;;;;;;;7.25;6.03;;;23.80;54.70;;;;;;4996400;28;20562;-73
2023/04/08 11:18:49;;;;;;;7.68;5.80;;;23.80;54.40;;;;;;4995901;28;20693;-73
2023/04/08 11:21:16;;;;;;;7.32;5.78;;;24.40;55.30;;;;;;4995978;28;20658;-72
2023/04/08 11:23:43;;;;;;;7.18;5.80;;;24.60;53.70;;;;;;4996195;28;20220;-73
2023/04/08 11:26:11;;;;;;;6.30;5.22;;;25.00;52.40;;;;;;4996261;28;20207;-70
2023/04/08 11:28:39;;;;;;;6.80;5.45;;;25.40;52.30;;;;;;4996072;28;20207;-71
2023/04/08 11:31:07;;;;;;;6.05;4.95;;;25.80;52.30;;;;;;5013630;28;20257;-70
2023/04/08 11:33:35;;;;;;;6.72;4.75;;;26.30;50.60;;;;;;4996613;28;20197;-72
2023/04/08 11:36:05;;;;;;;5.70;4.88;;;27.00;50.00;;;;;;4995589;28;20200;-72
2023/04/08 11:38:35;;;;;;;6.15;5.05;;;27.50;48.70;;;;;;4995883;28;20227;-72
2023/04/08 11:41:03;;;;;;;6.80;5.28;;;27.40;47.70;;;;;;4996593;28;20184;-72
2023/04/08 11:43:35;;;;;;;8.88;5.00;;;27.40;47.90;;;;;;4995793;28;20246;-73
2023/04/08 11:46:11;;;;;;;6.22;5.13;;;27.70;47.30;;;;;;4995850;28;20226;-72
2023/04/08 11:48:38;;;;;;;6.30;4.82;;;28.30;45.50;;;;;;4995746;28;20203;-71
2023/04/08 11:51:11;;;;;;;5.93;4.97;;;28.50;44.30;;;;;;5013338;28;20331;-72
2023/04/08 11:53:38;;;;;;;5.50;4.40;;;28.80;44.80;;;;;;4996063;28;20699;-72
2023/04/08 11:56:22;;;;;;;6.10;4.65;;;29.00;44.00;;;;;;4995449;28;20200;-74
2023/04/08 11:58:52;;;;;;;7.97;4.40;;;29.00;43.30;;;;;;4995593;28;20203;-74
2023/04/08 12:01:20;;;;;;;5.22;4.50;;;28.80;42.30;;;;;;4995169;28;20204;-75
2023/04/08 12:04:00;;;;;;;5.93;4.72;;;29.10;43.00;;;;;;4995034;28;20224;-74
2023/04/08 12:06:34;;;;;;;5.82;4.70;;;29.30;42.80;;;;;;5012746;28;20198;-74
2023/04/08 12:09:01;;;;;;;5.68;4.50;;;29.70;42.50;;;;;;4995554;28;20207;-73
2023/04/08 12:11:28;;;;;;;5.50;4.40;;;29.90;43.00;;;;;;4995479;28;20199;-75
2023/04/08 12:13:55;;;;;;;5.35;4.20;;;30.20;41.90;;;;;;4995144;28;20638;-74
2023/04/08 12:16:22;;;;;;;6.35;4.65;;;30.20;41.20;;;;;;4995162;28;20302;-72
2023/04/08 12:18:50;;;;;;;11.07;4.35;;;30.00;41.40;;;;;;4991487;28;20717;-75
2023/04/08 12:21:17;;;;;;;5.43;4.18;;;29.80;41.20;;;;;;4975574;28;20197;-76
2023/04/08 12:23:44;;;;;;;5.75;4.40;;;28.10;41.70;;;;;;4991667;28;20248;-77
2023/04/08 12:26:12;;;;;;;4.95;4.40;;;26.00;44.00;;;;;;4992962;28;20203;-78
2023/04/08 12:28:39;;;;;;;5.78;4.65;;;25.10;46.70;;;;;;4991975;28;20207;-76
2023/04/08 12:31:06;;;;;;;4.68;4.10;;;24.10;47.10;;;;;;4992922;28;20196;-77
2023/04/08 12:33:54;;;;;;;4.95;4.22;;;23.40;49.00;;;;;;4993035;28;20189;-78
2023/04/08 12:36:21;;;;;;;7.05;4.53;;;23.00;49.60;;;;;;4991967;28;20200;-78
2023/04/08 12:38:49;;;;;;;5.70;4.38;;;23.30;50.60;;;;;;4991957;28;20201;-78
2023/04/08 12:51:24;;;;;;;5.72;4.57;;;25.50;46.00;;;;;;5287452;23;20695;-78
2023/04/08 12:54:05;;;;;;;5.18;4.30;;;25.20;47.10;;;;;;4941200;28;20651;-78
2023/04/08 12:56:32;;;;;;;5.97;4.38;;;24.60;48.50;;;;;;4978786;23;20673;-78
2023/04/08 12:59:00;;;;;;;5.78;4.30;;;24.30;48.50;;;;;;4971490;28;20194;-77
2023/04/08 13:01:33;;;;;;;5.30;4.22;;;23.70;49.20;;;;;;4972108;28;20284;-78
2023/04/08 13:04:01;;;;;;;6.72;4.20;;;23.20;49.30;;;;;;4971691;28;20231;-78
2023/04/08 13:06:28;;;;;;;6.05;4.30;;;22.50;51.00;;;;;;4955867;28;20619;-78
2023/04/08 13:08:55;;;;;;;5.55;4.15;;;22.40;51.10;;;;;;4971438;28;20293;-78